createdAt,value
2018-06-08T00:00:37.067Z,4.50
2018-06-08T00:01:37.067Z,4.90
2018-06-08T00:02:37.069Z,4.80
2018-06-08T00:03:37.071Z,4.80
2018-06-08T00:04:37.072Z,4.00
2018-06-08T00:05:37.076Z,5.00
2018-06-08T00:06:37.078Z,5.00
2018-06-08T00:07:37.079Z,4.00
2018-06-08T00:08:37.082Z,4.90
2018-06-08T00:09:37.084Z,4.30
2018-06-08T00:10:37.087Z,4.90
2018-06-08T00:11:37.088Z,4.40
2018-06-08T00:12:37.090Z,4.20
2018-06-08T00:13:37.092Z,5.30
2018-06-08T00:14:37.093Z,4.80
2018-06-08T00:15:37.096Z,4.90
2018-06-08T00:16:37.098Z,5.20
2018-06-08T00:17:37.104Z,5.10
2018-06-08T00:18:37.104Z,5.20
2018-06-08T00:19:37.106Z,4.90
2018-06-08T00:20:37.106Z,4.70
2018-06-08T00:21:37.113Z,5.00
2018-06-08T00:22:37.110Z,4.40
2018-06-08T00:23:37.112Z,4.30
2018-06-08T00:24:37.114Z,4.90
2018-06-08T00:25:37.116Z,4.50
2018-06-08T00:26:37.119Z,3.90
2018-06-08T00:27:37.123Z,4.60
2018-06-08T00:28:37.123Z,4.90
2018-06-08T00:29:37.124Z,4.80
2018-06-08T00:30:37.127Z,4.00
2018-06-08T00:31:37.128Z,4.20
2018-06-08T00:32:37.130Z,4.80
2018-06-08T00:33:37.132Z,4.90
2018-06-08T00:34:37.134Z,3.80
2018-06-08T00:35:37.136Z,4.40
2018-06-08T00:36:37.137Z,4.60
2018-06-08T00:37:37.140Z,4.60
2018-06-08T00:38:37.146Z,3.90
2018-06-08T00:39:37.146Z,3.90
2018-06-08T00:40:37.148Z,4.70
2018-06-08T00:41:37.149Z,4.10
2018-06-08T00:42:37.152Z,4.40
2018-06-08T00:43:37.154Z,4.30
2018-06-08T00:44:37.170Z,4.00
2018-06-08T00:45:37.157Z,4.00
2018-06-08T00:46:37.160Z,3.80
2018-06-08T00:47:37.162Z,4.50
2018-06-08T00:48:37.163Z,3.90
2018-06-08T00:49:37.166Z,4.00
2018-06-08T00:50:37.167Z,4.30
2018-06-08T00:51:37.169Z,4.80
2018-06-08T00:52:37.172Z,4.70
2018-06-08T00:53:37.173Z,4.50
2018-06-08T00:54:37.175Z,4.40
2018-06-08T00:55:37.178Z,4.10
2018-06-08T00:56:37.180Z,4.50
2018-06-08T00:57:37.182Z,4.00
2018-06-08T00:58:37.184Z,4.60
2018-06-08T00:59:37.186Z,4.10
2018-06-08T01:00:37.189Z,3.60
2018-06-08T01:01:37.189Z,3.80
2018-06-08T01:02:37.192Z,3.70
2018-06-08T01:03:37.193Z,3.80
2018-06-08T01:04:37.196Z,4.00
2018-06-08T01:05:37.197Z,3.80
2018-06-08T01:06:37.199Z,3.90
2018-06-08T01:07:37.202Z,4.40
2018-06-08T01:08:37.202Z,4.20
2018-06-08T01:09:37.205Z,3.50
2018-06-08T01:10:37.209Z,3.70
2018-06-08T01:11:37.209Z,4.00
2018-06-08T01:12:37.211Z,4.10
2018-06-08T01:13:37.211Z,3.90
2018-06-08T01:14:37.214Z,3.30
2018-06-08T01:15:37.218Z,3.20
2018-06-08T01:16:37.218Z,3.20
2018-06-08T01:17:37.226Z,3.20
2018-06-08T01:18:37.221Z,3.40
2018-06-08T01:19:37.225Z,3.30
2018-06-08T01:20:37.225Z,3.60
2018-06-08T01:21:37.228Z,3.50
2018-06-08T01:22:37.230Z,3.80
2018-06-08T01:23:37.232Z,3.90
2018-06-08T01:24:37.232Z,3.30
2018-06-08T01:25:37.236Z,4.00
2018-06-08T01:26:37.239Z,3.50
2018-06-08T01:27:37.239Z,3.70
2018-06-08T01:28:37.241Z,3.70
2018-06-08T01:29:37.243Z,4.40
2018-06-08T01:30:37.244Z,3.90
2018-06-08T01:31:37.246Z,3.80
2018-06-08T01:32:37.251Z,4.10
2018-06-08T01:33:37.250Z,4.30
2018-06-08T01:34:37.253Z,3.60
2018-06-08T01:35:37.253Z,4.10
2018-06-08T01:36:37.257Z,3.70
2018-06-08T01:37:37.259Z,4.50
2018-06-08T01:38:37.259Z,4.70
2018-06-08T01:39:37.261Z,4.10
2018-06-08T01:40:37.263Z,4.00
2018-06-08T01:41:37.264Z,4.00
2018-06-08T01:42:37.268Z,4.00
2018-06-08T01:43:37.269Z,4.10
2018-06-08T01:44:37.269Z,3.80
2018-06-08T01:45:37.270Z,4.10
2018-06-08T01:46:37.274Z,4.20
2018-06-08T01:47:37.275Z,4.40
2018-06-08T01:48:37.275Z,3.80
2018-06-08T01:49:37.279Z,4.10
2018-06-08T01:50:37.278Z,3.90
2018-06-08T01:51:37.282Z,4.80
2018-06-08T01:52:37.284Z,4.10
2018-06-08T01:53:37.285Z,4.40
2018-06-08T01:54:37.286Z,4.10
2018-06-08T01:55:37.290Z,4.40
2018-06-08T01:56:37.289Z,4.20
2018-06-08T01:57:37.291Z,4.10
2018-06-08T01:58:37.294Z,3.90
2018-06-08T01:59:37.296Z,4.60
2018-06-08T02:00:37.296Z,4.10
2018-06-08T02:01:37.298Z,4.20
2018-06-08T02:02:37.305Z,4.60
2018-06-08T02:03:37.302Z,4.50
2018-06-08T02:04:37.304Z,3.90
2018-06-08T02:05:37.306Z,4.60
2018-06-08T02:06:37.307Z,3.90
2018-06-08T02:07:37.309Z,3.70
2018-06-08T02:08:37.311Z,3.80
2018-06-08T02:09:37.312Z,3.30
2018-06-08T02:10:37.314Z,3.60
2018-06-08T02:11:37.316Z,4.10
2018-06-08T02:12:37.319Z,4.00
2018-06-08T02:13:37.319Z,3.70
2018-06-08T02:14:37.320Z,3.70
2018-06-08T02:15:37.323Z,3.70
2018-06-08T02:16:37.324Z,4.30
2018-06-08T02:17:37.327Z,3.90
2018-06-08T02:18:37.327Z,4.00
2018-06-08T02:19:37.330Z,3.70
2018-06-08T02:20:37.330Z,4.00
2018-06-08T02:21:37.332Z,3.80
2018-06-08T02:22:37.334Z,3.80
2018-06-08T02:23:37.336Z,3.70
2018-06-08T02:24:37.337Z,3.50
2018-06-08T02:25:37.342Z,3.70
2018-06-08T02:26:37.341Z,4.00
2018-06-08T02:27:37.343Z,4.10
2018-06-08T02:28:37.345Z,3.70
2018-06-08T02:29:37.347Z,3.40
2018-06-08T02:30:37.349Z,4.20
2018-06-08T02:31:37.349Z,4.10
2018-06-08T02:32:37.358Z,4.40
2018-06-08T02:33:37.353Z,3.90
2018-06-08T02:34:37.355Z,3.60
2018-06-08T02:35:37.357Z,3.90
2018-06-08T02:36:37.360Z,3.40
2018-06-08T02:37:37.360Z,4.10
2018-06-08T02:38:37.364Z,3.60
2018-06-08T02:39:37.364Z,3.80
2018-06-08T02:40:37.368Z,3.90
2018-06-08T02:41:37.368Z,4.10
2018-06-08T02:42:37.372Z,3.60
2018-06-08T02:43:37.371Z,3.40
2018-06-08T02:44:37.372Z,3.60
2018-06-08T02:45:37.375Z,4.00
2018-06-08T02:46:37.377Z,3.50
2018-06-08T02:47:37.378Z,3.80
2018-06-08T02:48:37.378Z,3.90
2018-06-08T02:49:37.385Z,3.40
2018-06-08T02:50:37.382Z,4.10
2018-06-08T02:51:37.386Z,3.50
2018-06-08T02:52:37.385Z,3.40
2018-06-08T02:53:37.388Z,4.00
2018-06-08T02:54:37.391Z,3.60
2018-06-08T02:55:37.392Z,4.00
2018-06-08T02:56:37.394Z,3.60
2018-06-08T02:57:37.395Z,4.10
2018-06-08T02:58:37.397Z,4.60
2018-06-08T02:59:37.399Z,4.30
2018-06-08T03:00:37.401Z,4.00
2018-06-08T03:01:37.407Z,3.60
2018-06-08T03:02:37.403Z,3.70
2018-06-08T03:03:37.409Z,3.80
2018-06-08T03:04:37.407Z,3.70
2018-06-08T03:05:37.409Z,4.20
2018-06-08T03:06:37.410Z,3.80
2018-06-08T03:07:37.412Z,3.50
2018-06-08T03:08:37.412Z,3.60
2018-06-08T03:09:37.416Z,4.40
2018-06-08T03:10:37.420Z,4.50
2018-06-08T03:11:37.418Z,4.30
2018-06-08T03:12:37.423Z,3.70
2018-06-08T03:13:37.421Z,3.60
2018-06-08T03:14:37.424Z,4.40
2018-06-08T03:15:37.426Z,4.20
2018-06-08T03:16:37.425Z,3.90
2018-06-08T03:17:37.429Z,3.70
2018-06-08T03:18:37.445Z,3.70
2018-06-08T03:19:37.431Z,4.20
2018-06-08T03:20:37.434Z,4.00
2018-06-08T03:21:37.434Z,3.60
2018-06-08T03:22:37.436Z,4.10
2018-06-08T03:23:37.437Z,4.20
2018-06-08T03:24:37.519Z,3.80
2018-06-08T03:25:37.441Z,3.80
2018-06-08T03:26:37.442Z,3.90
2018-06-08T03:27:37.444Z,3.30
2018-06-08T03:28:37.444Z,3.80
2018-06-08T03:29:37.445Z,4.10
2018-06-08T03:30:37.448Z,3.70
2018-06-08T03:31:37.449Z,4.10
2018-06-08T03:32:37.451Z,3.90
2018-06-08T03:33:37.452Z,3.90
2018-06-08T03:34:37.454Z,3.60
2018-06-08T03:35:37.456Z,3.50
2018-06-08T03:36:37.458Z,3.60
2018-06-08T03:37:37.461Z,4.00
2018-06-08T03:38:37.460Z,3.80
2018-06-08T03:39:37.463Z,4.10
2018-06-08T03:40:37.463Z,4.00
2018-06-08T03:41:37.465Z,3.80
2018-06-08T03:42:37.468Z,3.80
2018-06-08T03:43:37.468Z,3.40
2018-06-08T03:44:37.469Z,4.40
2018-06-08T03:45:37.472Z,3.80
2018-06-08T03:46:37.473Z,3.80
2018-06-08T03:47:37.475Z,4.20
2018-06-08T03:48:37.477Z,3.20
2018-06-08T03:49:37.479Z,4.30
2018-06-08T03:50:37.480Z,4.10
2018-06-08T03:51:37.481Z,4.40
2018-06-08T03:52:37.481Z,4.40
2018-06-08T03:53:37.487Z,4.60
2018-06-08T03:54:37.485Z,3.70
2018-06-08T03:55:37.487Z,3.80
2018-06-08T03:56:37.488Z,4.20
2018-06-08T03:57:37.491Z,3.70
2018-06-08T03:58:37.491Z,4.10
2018-06-08T03:59:37.494Z,4.50
2018-06-08T04:00:37.494Z,4.00
2018-06-08T04:01:37.501Z,4.40
2018-06-08T04:02:37.497Z,4.60
2018-06-08T04:03:37.497Z,4.00
2018-06-08T04:04:37.499Z,3.70
2018-06-08T04:05:37.500Z,4.00
2018-06-08T04:06:37.502Z,3.60
2018-06-08T04:07:37.503Z,3.80
2018-06-08T04:08:37.506Z,4.20
2018-06-08T04:09:37.505Z,3.90
2018-06-08T04:10:37.508Z,4.20
2018-06-08T04:11:37.508Z,4.10
2018-06-08T04:12:37.511Z,4.50
2018-06-08T04:13:37.511Z,4.70
2018-06-08T04:14:37.512Z,3.70
2018-06-08T04:15:37.514Z,4.00
2018-06-08T04:16:37.515Z,4.30
2018-06-08T04:17:37.519Z,4.20
2018-06-08T04:18:37.518Z,4.50
2018-06-08T04:19:37.521Z,4.30
2018-06-08T04:20:37.520Z,4.50
2018-06-08T04:21:37.521Z,3.90
2018-06-08T04:22:37.525Z,4.00
2018-06-08T04:23:37.526Z,4.30
2018-06-08T04:24:37.526Z,4.00
2018-06-08T04:25:37.558Z,4.00
2018-06-08T04:26:37.531Z,4.30
2018-06-08T04:27:37.531Z,3.80
2018-06-08T04:28:37.533Z,4.70
2018-06-08T04:29:37.533Z,4.20
2018-06-08T04:30:37.535Z,3.90
2018-06-08T04:31:37.537Z,4.50
2018-06-08T04:32:37.538Z,4.20
2018-06-08T04:33:37.540Z,4.30
2018-06-08T04:34:37.542Z,5.20
2018-06-08T04:35:37.544Z,4.90
2018-06-08T04:36:37.545Z,4.40
2018-06-08T04:37:37.548Z,4.20
2018-06-08T04:38:37.548Z,4.60
2018-06-08T04:39:37.553Z,4.10
2018-06-08T04:40:37.551Z,4.30
2018-06-08T04:41:37.553Z,3.60
2018-06-08T04:42:37.555Z,3.90
2018-06-08T04:43:37.557Z,3.70
2018-06-08T04:44:37.558Z,3.60
2018-06-08T04:45:37.560Z,3.90
2018-06-08T04:46:37.562Z,4.00
2018-06-08T04:47:37.564Z,4.20
2018-06-08T04:48:37.565Z,4.00
2018-06-08T04:49:37.567Z,4.20
2018-06-08T04:50:37.569Z,4.20
2018-06-08T04:51:37.612Z,4.00
2018-06-08T04:52:37.573Z,3.80
2018-06-08T04:53:37.574Z,4.70
2018-06-08T04:54:37.577Z,4.00
2018-06-08T04:55:37.582Z,4.30
2018-06-08T04:56:37.578Z,4.50
2018-06-08T04:57:37.581Z,4.20
2018-06-08T04:58:37.583Z,3.70
2018-06-08T04:59:37.584Z,4.30
2018-06-08T05:00:37.586Z,3.90
2018-06-08T05:01:37.589Z,3.80
2018-06-08T05:02:37.590Z,4.20
2018-06-08T05:03:37.593Z,4.20
2018-06-08T05:04:37.593Z,4.00
2018-06-08T05:05:37.597Z,4.00
2018-06-08T05:06:37.598Z,4.20
2018-06-08T05:07:37.599Z,4.60
2018-06-08T05:08:37.600Z,4.60
2018-06-08T05:09:37.609Z,4.30
2018-06-08T05:10:37.609Z,4.60
2018-06-08T05:11:37.608Z,4.00
2018-06-08T05:12:37.608Z,3.90
2018-06-08T05:13:37.610Z,4.50
2018-06-08T05:14:37.612Z,5.20
2018-06-08T05:15:37.613Z,5.00
2018-06-08T05:16:37.615Z,5.20
2018-06-08T05:17:37.618Z,4.00
2018-06-08T05:18:37.619Z,5.00
2018-06-08T05:19:37.621Z,4.30
2018-06-08T05:20:37.622Z,3.90
2018-06-08T05:21:37.624Z,4.00
2018-06-08T05:22:37.628Z,4.00
2018-06-08T05:23:37.629Z,4.10
2018-06-08T05:24:37.633Z,4.60
2018-06-08T05:25:37.631Z,3.60
2018-06-08T05:26:37.636Z,4.90
2018-06-08T05:27:37.637Z,7.20
2018-06-08T05:28:37.638Z,8.50
2018-06-08T05:29:37.640Z,5.60
2018-06-08T05:30:37.643Z,5.00
2018-06-08T05:31:37.644Z,4.20
2018-06-08T05:32:37.645Z,3.80
2018-06-08T05:33:37.647Z,4.10
2018-06-08T05:34:37.649Z,3.60
2018-06-08T05:35:37.651Z,3.80
2018-06-08T05:36:37.652Z,3.40
2018-06-08T05:37:37.655Z,3.30
2018-06-08T05:38:37.657Z,3.50
2018-06-08T05:39:37.660Z,4.00
2018-06-08T05:40:37.659Z,3.60
2018-06-08T05:41:37.664Z,3.90
2018-06-08T05:42:37.706Z,4.10
2018-06-08T05:43:37.669Z,3.80
2018-06-08T05:44:37.668Z,4.20
2018-06-08T05:45:37.671Z,4.10
2018-06-08T05:46:37.677Z,3.80
2018-06-08T05:47:37.676Z,3.80
2018-06-08T05:48:37.744Z,4.30
2018-06-08T05:49:37.681Z,4.20
2018-06-08T05:50:37.682Z,4.20
2018-06-08T05:51:37.686Z,4.70
2018-06-08T05:52:37.688Z,4.10
2018-06-08T05:53:37.701Z,4.20
2018-06-08T05:54:37.692Z,4.00
2018-06-08T05:55:37.701Z,4.10
2018-06-08T05:56:37.697Z,3.00
2018-06-08T05:57:37.701Z,3.60
2018-06-08T05:58:37.702Z,4.30
2018-06-08T05:59:37.705Z,4.60
2018-06-08T06:00:37.708Z,3.30
2018-06-08T06:01:37.711Z,3.50
2018-06-08T06:02:37.713Z,3.30
2018-06-08T06:03:37.716Z,4.00
2018-06-08T06:04:37.719Z,3.70
2018-06-08T06:05:37.732Z,3.80
2018-06-08T06:06:37.725Z,3.50
2018-06-08T06:07:37.726Z,3.90
2018-06-08T06:08:37.730Z,3.40
2018-06-08T06:09:37.731Z,3.30
2018-06-08T06:10:37.756Z,3.20
2018-06-08T06:11:37.737Z,4.00
2018-06-08T06:12:37.742Z,3.60
2018-06-08T06:13:37.743Z,3.30
2018-06-08T06:14:37.747Z,4.70
2018-06-08T06:15:37.751Z,3.50
2018-06-08T06:16:37.753Z,4.00
2018-06-08T06:17:37.755Z,3.30
2018-06-08T06:18:37.759Z,3.70
2018-06-08T06:19:37.760Z,3.50
2018-06-08T06:20:37.762Z,3.30
2018-06-08T06:21:37.767Z,4.10
2018-06-08T06:22:37.787Z,3.90
2018-06-08T06:23:37.790Z,4.00
2018-06-08T06:24:37.827Z,3.30
2018-06-08T06:25:37.801Z,4.00
2018-06-08T06:26:37.816Z,3.80
2018-06-08T06:27:37.878Z,4.30
2018-06-08T06:28:37.846Z,4.10
2018-06-08T06:29:37.799Z,4.00
2018-06-08T06:30:37.847Z,3.80
2018-06-08T06:31:37.850Z,4.10
2018-06-08T06:32:37.803Z,3.60
2018-06-08T06:33:37.804Z,4.20
2018-06-08T06:34:37.811Z,3.60
2018-06-08T06:35:37.811Z,3.60
2018-06-08T06:36:37.817Z,3.70
2018-06-08T06:37:37.818Z,3.50
2018-06-08T06:38:37.822Z,4.60
2018-06-08T06:39:37.868Z,4.10
2018-06-08T06:40:37.828Z,3.50
2018-06-08T06:41:37.831Z,3.70
2018-06-08T06:42:37.835Z,3.40
2018-06-08T06:43:37.838Z,3.30
2018-06-08T06:44:37.842Z,3.80
2018-06-08T06:45:37.846Z,4.00
2018-06-08T06:46:37.850Z,4.30
2018-06-08T06:47:37.853Z,3.40
2018-06-08T06:48:37.858Z,3.20
2018-06-08T06:49:37.860Z,4.20
2018-06-08T06:50:37.865Z,3.20
2018-06-08T06:51:37.869Z,4.40
2018-06-08T06:52:37.872Z,4.30
2018-06-08T06:53:37.879Z,3.90
2018-06-08T06:54:37.915Z,4.10
2018-06-08T06:55:37.939Z,4.30
2018-06-08T06:56:37.920Z,3.70
2018-06-08T06:57:37.894Z,4.00
2018-06-08T06:58:37.938Z,3.50
2018-06-08T06:59:37.901Z,4.60
2018-06-08T07:00:37.905Z,3.80
2018-06-08T07:01:37.908Z,3.20
2018-06-08T07:02:37.914Z,3.30
2018-06-08T07:03:37.918Z,4.00
2018-06-08T07:04:37.921Z,3.70
2018-06-08T07:05:37.926Z,3.90
2018-06-08T07:06:37.930Z,3.90
2018-06-08T07:07:37.934Z,4.00
2018-06-08T07:08:37.939Z,3.70
2018-06-08T07:09:37.943Z,4.20
2018-06-08T07:10:37.947Z,4.80
2018-06-08T07:11:37.952Z,3.60
2018-06-08T07:12:37.956Z,4.70
2018-06-08T07:13:37.960Z,3.10
2018-06-08T07:14:37.965Z,3.80
2018-06-08T07:15:37.971Z,3.60
2018-06-08T07:16:37.974Z,3.30
2018-06-08T07:17:37.979Z,3.50
2018-06-08T07:18:38.030Z,3.90
2018-06-08T07:19:37.993Z,3.10
2018-06-08T07:20:37.992Z,3.70
2018-06-08T07:21:37.998Z,3.70
2018-06-08T07:22:38.003Z,3.70
2018-06-08T07:23:38.008Z,3.30
2018-06-08T07:24:38.080Z,3.60
2018-06-08T07:25:38.046Z,3.50
2018-06-08T07:26:38.117Z,4.00
2018-06-08T07:27:38.060Z,4.10
2018-06-08T07:28:38.063Z,3.60
2018-06-08T07:29:38.038Z,3.20
2018-06-08T07:30:38.043Z,3.80
2018-06-08T07:31:38.080Z,4.10
2018-06-08T07:32:38.055Z,4.00
2018-06-08T07:33:38.061Z,3.10
2018-06-08T07:34:38.069Z,3.90
2018-06-08T07:35:38.082Z,3.90
2018-06-08T07:36:38.082Z,5.80
2018-06-08T07:37:38.091Z,17.10
2018-06-08T07:38:38.099Z,232.50
2018-06-08T07:39:38.106Z,85.40
2018-06-08T07:40:38.113Z,37.30
2018-06-08T07:41:38.121Z,99.50
2018-06-08T07:42:38.131Z,183.60
2018-06-08T07:43:38.136Z,301.10
2018-06-08T07:44:38.143Z,125.00
2018-06-08T07:45:38.151Z,266.40
2018-06-08T07:46:38.157Z,297.60
2018-06-08T07:47:38.166Z,301.40
2018-06-08T07:48:38.174Z,113.40
2018-06-08T07:49:38.180Z,162.90
2018-06-08T07:50:38.192Z,204.70
2018-06-08T07:51:38.196Z,302.00
2018-06-08T07:52:38.202Z,176.30
2018-06-08T07:53:38.215Z,128.40
2018-06-08T07:54:38.266Z,259.40
2018-06-08T07:55:38.277Z,212.70
2018-06-08T07:56:38.246Z,114.60
2018-06-08T07:57:38.272Z,87.10
2018-06-08T07:58:38.311Z,91.80
2018-06-08T07:59:38.255Z,76.60
2018-06-08T08:00:38.263Z,49.20
2018-06-08T08:01:38.272Z,113.80
2018-06-08T08:02:38.280Z,134.70
2018-06-08T08:03:38.299Z,209.40
2018-06-08T08:04:38.297Z,141.80
2018-06-08T08:05:38.307Z,141.30
2018-06-08T08:06:38.314Z,113.20
2018-06-08T08:07:38.325Z,209.00
2018-06-08T08:08:38.334Z,125.90
2018-06-08T08:09:38.345Z,162.40
2018-06-08T08:10:38.356Z,150.90
2018-06-08T08:11:38.365Z,315.50
2018-06-08T08:12:38.375Z,441.00
2018-06-08T08:13:38.386Z,452.20
2018-06-08T08:14:38.397Z,272.60
2018-06-08T08:15:38.407Z,186.00
2018-06-08T08:16:38.417Z,139.60
2018-06-08T08:17:38.431Z,146.10
2018-06-08T08:18:38.439Z,185.90
2018-06-08T08:19:38.602Z,185.90
2018-06-08T08:20:38.461Z,233.70
2018-06-08T08:21:38.473Z,320.20
2018-06-08T08:22:38.488Z,285.30
2018-06-08T08:23:38.497Z,164.40
2018-06-08T08:24:38.532Z,239.40
2018-06-08T08:25:38.577Z,244.80
2018-06-08T08:26:38.618Z,227.10
2018-06-08T08:27:38.590Z,246.20
2018-06-08T08:28:38.587Z,209.60
2018-06-08T08:29:38.569Z,164.10
2018-06-08T08:30:38.579Z,114.60
2018-06-08T08:31:38.592Z,333.80
2018-06-08T08:32:38.603Z,496.60
2018-06-08T08:33:38.613Z,380.10
2018-06-08T08:34:38.644Z,148.60
2018-06-08T08:35:38.642Z,219.00
2018-06-08T08:36:38.654Z,344.40
2018-06-08T08:37:38.664Z,371.50
2018-06-08T08:38:38.675Z,483.30
2018-06-08T08:39:38.693Z,496.70
2018-06-08T08:40:38.697Z,533.90
2018-06-08T08:41:38.710Z,509.80
2018-06-08T08:42:38.722Z,459.30
2018-06-08T08:43:38.733Z,436.00
2018-06-08T08:44:38.747Z,449.20
2018-06-08T08:45:38.760Z,452.60
2018-06-08T08:46:38.770Z,450.50
2018-06-08T08:47:38.781Z,478.10
2018-06-08T08:48:38.792Z,493.90
2018-06-08T08:49:38.805Z,492.90
2018-06-08T08:50:38.817Z,497.60
2018-06-08T08:51:38.852Z,311.90
2018-06-08T08:52:38.838Z,188.30
2018-06-08T08:53:38.878Z,251.20
2018-06-08T08:54:38.899Z,324.30
2018-06-08T08:55:38.887Z,297.60
2018-06-08T08:56:38.935Z,328.60
2018-06-08T08:57:38.925Z,239.40
2018-06-08T08:58:38.931Z,171.30
2018-06-08T08:59:38.921Z,105.80
2018-06-08T09:00:38.927Z,173.70
2018-06-08T09:01:38.938Z,142.70
2018-06-08T09:02:38.948Z,137.10
2018-06-08T09:03:38.959Z,154.80
2018-06-08T09:04:38.969Z,136.80
2018-06-08T09:05:38.980Z,119.90
2018-06-08T09:06:38.991Z,151.30
2018-06-08T09:07:39.001Z,132.50
2018-06-08T09:08:39.010Z,147.80
2018-06-08T09:09:39.021Z,173.70
2018-06-08T09:10:39.031Z,167.80
2018-06-08T09:11:39.042Z,193.90
2018-06-08T09:12:39.052Z,177.50
2018-06-08T09:13:39.061Z,166.20
2018-06-08T09:14:39.075Z,170.90
2018-06-08T09:15:39.082Z,198.60
2018-06-08T09:16:39.091Z,218.60
2018-06-08T09:17:39.101Z,227.30
2018-06-08T09:18:39.111Z,226.60
2018-06-08T09:19:39.122Z,243.40
2018-06-08T09:20:39.131Z,265.60
2018-06-08T09:21:39.175Z,185.10
2018-06-08T09:22:39.218Z,250.40
2018-06-08T09:23:39.225Z,225.90
2018-06-08T09:24:39.190Z,192.40
2018-06-08T09:25:39.283Z,151.40
2018-06-08T09:26:39.211Z,153.30
2018-06-08T09:27:39.201Z,158.80
2018-06-08T09:28:39.259Z,51.20
2018-06-08T09:29:39.253Z,67.60
2018-06-08T09:30:39.302Z,82.00
2018-06-08T09:31:39.240Z,69.20
2018-06-08T09:32:39.250Z,67.80
2018-06-08T09:33:39.260Z,88.20
2018-06-08T09:34:39.273Z,62.60
2018-06-08T09:35:39.280Z,355.50
2018-06-08T09:36:39.290Z,231.30
2018-06-08T09:37:39.302Z,189.30
2018-06-08T09:38:39.312Z,325.80
2018-06-08T09:39:39.319Z,366.90
2018-06-08T09:40:39.360Z,389.00
2018-06-08T09:41:39.338Z,364.70
2018-06-08T09:42:39.399Z,338.20
2018-06-08T09:43:39.360Z,331.00
2018-06-08T09:44:39.369Z,394.80
2018-06-08T09:45:39.379Z,300.00
2018-06-08T09:46:39.390Z,347.00
2018-06-08T09:47:39.398Z,146.70
2018-06-08T09:48:39.407Z,330.70
2018-06-08T09:49:39.463Z,373.60
2018-06-08T09:50:39.427Z,404.50
2018-06-08T09:51:39.437Z,427.70
2018-06-08T09:52:39.446Z,161.40
2018-06-08T09:53:39.456Z,80.40
2018-06-08T09:54:39.494Z,85.40
2018-06-08T09:55:39.498Z,111.10
2018-06-08T09:56:39.494Z,106.20
2018-06-08T09:57:39.562Z,69.80
2018-06-08T09:58:39.592Z,86.40
2018-06-08T09:59:39.525Z,103.20
2018-06-08T10:00:39.524Z,77.40
2018-06-08T10:01:39.534Z,59.20
2018-06-08T10:02:39.546Z,123.20
2018-06-08T10:03:39.604Z,75.50
2018-06-08T10:04:39.982Z,70.50
2018-06-08T10:05:39.642Z,68.70
2018-06-08T10:06:39.770Z,84.70
2018-06-08T10:07:39.867Z,93.10
2018-06-08T10:08:39.858Z,88.90
2018-06-08T10:09:40.090Z,84.50
2018-06-08T10:10:39.708Z,133.00
2018-06-08T10:11:39.891Z,119.40
2018-06-08T10:12:39.924Z,87.70
2018-06-08T10:13:39.959Z,100.40
2018-06-08T10:14:39.665Z,89.50
2018-06-08T10:15:39.673Z,84.40
2018-06-08T10:16:39.718Z,79.80
2018-06-08T10:17:39.694Z,132.10
2018-06-08T10:18:39.704Z,110.40
2018-06-08T10:19:39.716Z,116.60
2018-06-08T10:20:39.723Z,61.40
2018-06-08T10:21:39.735Z,74.60
2018-06-08T10:22:39.743Z,45.50
2018-06-08T10:23:39.756Z,154.80
2018-06-08T10:24:39.883Z,111.70
2018-06-08T10:25:39.830Z,107.90
2018-06-08T10:26:39.836Z,122.90
2018-06-08T10:27:39.835Z,154.60
2018-06-08T10:28:39.874Z,112.40
2018-06-08T10:29:39.834Z,146.10
2018-06-08T10:30:39.957Z,99.00
2018-06-08T10:31:39.832Z,49.50
2018-06-08T10:32:39.839Z,62.20
2018-06-08T10:33:39.851Z,68.40
2018-06-08T10:34:39.860Z,67.00
2018-06-08T10:35:39.870Z,79.10
2018-06-08T10:36:39.877Z,71.10
2018-06-08T10:37:39.886Z,80.40
2018-06-08T10:38:39.897Z,111.60
2018-06-08T10:39:39.905Z,80.30
2018-06-08T10:40:39.913Z,77.80
2018-06-08T10:41:39.924Z,98.00
2018-06-08T10:42:39.935Z,49.50
2018-06-08T10:43:39.942Z,74.50
2018-06-08T10:44:39.951Z,61.70
2018-06-08T10:45:39.962Z,47.60
2018-06-08T10:46:39.998Z,143.40
2018-06-08T10:47:39.979Z,72.80
2018-06-08T10:48:39.987Z,62.30
2018-06-08T10:49:39.996Z,114.00
2018-06-08T10:50:40.006Z,60.90
2018-06-08T10:51:40.014Z,75.90
2018-06-08T10:52:40.023Z,128.40
2018-06-08T10:53:40.035Z,76.70
2018-06-08T10:54:40.041Z,128.90
2018-06-08T10:55:40.049Z,66.70
2018-06-08T10:56:40.059Z,70.50
2018-06-08T10:57:40.069Z,103.50
2018-06-08T10:58:40.077Z,170.60
2018-06-08T10:59:40.087Z,96.60
2018-06-08T11:00:40.095Z,59.80
2018-06-08T11:01:40.104Z,52.90
2018-06-08T11:02:40.118Z,40.10
2018-06-08T11:03:40.123Z,56.70
2018-06-08T11:04:40.132Z,107.20
2018-06-08T11:05:40.140Z,58.50
2018-06-08T11:06:40.153Z,194.80
2018-06-08T11:07:40.164Z,235.20
2018-06-08T11:08:40.169Z,77.30
2018-06-08T11:09:40.177Z,70.40
2018-06-08T11:10:40.187Z,61.90
2018-06-08T11:11:40.196Z,132.10
2018-06-08T11:12:40.206Z,153.50
2018-06-08T11:13:40.216Z,222.90
2018-06-08T11:14:40.224Z,212.40
2018-06-08T11:15:40.233Z,250.60
2018-06-08T11:16:40.458Z,245.40
2018-06-08T11:17:40.252Z,64.20
2018-06-08T11:18:40.260Z,46.40
2018-06-08T11:19:40.269Z,62.70
2018-06-08T11:20:40.496Z,49.50
2018-06-08T11:21:40.546Z,75.40
2018-06-08T11:22:40.555Z,80.80
2018-06-08T11:23:40.336Z,134.30
2018-06-08T11:24:40.590Z,52.20
2018-06-08T11:25:40.830Z,66.40
2018-06-08T11:26:40.551Z,57.50
2018-06-08T11:27:40.549Z,171.90
2018-06-08T11:28:40.478Z,129.70
2018-06-08T11:29:40.615Z,82.20
2018-06-08T11:30:40.369Z,205.40
2018-06-08T11:31:40.378Z,159.40
2018-06-08T11:32:40.386Z,97.30
2018-06-08T11:33:40.396Z,59.80
2018-06-08T11:34:40.405Z,68.00
2018-06-08T11:35:40.413Z,67.80
2018-06-08T11:36:40.420Z,60.20
2018-06-08T11:37:40.429Z,68.20
2018-06-08T11:38:40.438Z,61.30
2018-06-08T11:39:40.448Z,62.00
2018-06-08T11:40:40.456Z,58.40
2018-06-08T11:41:40.464Z,52.00
2018-06-08T11:42:40.475Z,62.10
2018-06-08T11:43:40.483Z,68.90
2018-06-08T11:44:40.492Z,64.40
2018-06-08T11:45:40.501Z,60.80
2018-06-08T11:46:40.508Z,69.50
2018-06-08T11:47:40.517Z,113.90
2018-06-08T11:48:40.525Z,417.60
2018-06-08T11:49:40.535Z,69.40
2018-06-08T11:50:40.543Z,100.30
2018-06-08T11:51:40.553Z,90.30
2018-06-08T11:52:40.560Z,98.50
2018-06-08T11:53:40.568Z,83.20
2018-06-08T11:54:40.577Z,105.70
2018-06-08T11:55:40.588Z,109.60
2018-06-08T11:56:40.740Z,51.90
2018-06-08T11:57:40.656Z,65.40
2018-06-08T11:58:40.699Z,56.60
2018-06-08T11:59:40.666Z,54.90
2018-06-08T12:00:40.643Z,92.50
2018-06-08T12:01:40.650Z,87.60
2018-06-08T12:02:40.647Z,57.60
2018-06-08T12:03:40.655Z,56.60
2018-06-08T12:04:40.664Z,80.10
2018-06-08T12:05:40.673Z,52.60
2018-06-08T12:06:40.681Z,142.60
2018-06-08T12:07:40.689Z,175.50
2018-06-08T12:08:40.699Z,131.50
2018-06-08T12:09:40.706Z,65.50
2018-06-08T12:10:40.715Z,79.10
2018-06-08T12:11:40.729Z,73.40
2018-06-08T12:12:40.733Z,66.40
2018-06-08T12:13:40.742Z,46.20
2018-06-08T12:14:40.749Z,46.60
2018-06-08T12:15:40.758Z,63.50
2018-06-08T12:16:40.767Z,64.70
2018-06-08T12:17:40.774Z,55.00
2018-06-08T12:18:40.789Z,74.10
2018-06-08T12:19:40.794Z,72.80
2018-06-08T12:20:40.801Z,64.90
2018-06-08T12:21:40.810Z,95.00
2018-06-08T12:22:40.816Z,71.70
2018-06-08T12:23:40.827Z,167.00
2018-06-08T12:24:40.834Z,86.00
2018-06-08T12:25:40.844Z,133.80
2018-06-08T12:26:40.861Z,81.30
2018-06-08T12:27:40.927Z,50.40
2018-06-08T12:28:40.995Z,107.30
2018-06-08T12:29:40.891Z,84.80
2018-06-08T12:30:40.974Z,57.30
2018-06-08T12:31:40.892Z,95.20
2018-06-08T12:32:40.901Z,125.30
2018-06-08T12:33:40.909Z,86.20
2018-06-08T12:34:40.919Z,88.70
2018-06-08T12:35:40.927Z,107.10
2018-06-08T12:36:40.936Z,71.50
2018-06-08T12:37:40.941Z,83.60
2018-06-08T12:38:40.948Z,71.40
2018-06-08T12:39:40.958Z,99.60
2018-06-08T12:40:40.963Z,103.10
2018-06-08T12:41:40.971Z,182.70
2018-06-08T12:42:40.978Z,43.40
2018-06-08T12:43:41.003Z,47.60
2018-06-08T12:44:40.995Z,57.40
2018-06-08T12:45:41.003Z,95.60
2018-06-08T12:46:41.012Z,54.40
2018-06-08T12:47:41.017Z,87.20
2018-06-08T12:48:41.025Z,236.10
2018-06-08T12:49:41.033Z,41.00
2018-06-08T12:50:41.041Z,78.30
2018-06-08T12:51:41.047Z,94.00
2018-06-08T12:52:41.061Z,81.60
2018-06-08T12:53:41.102Z,78.30
2018-06-08T12:54:41.070Z,79.50
2018-06-08T12:55:41.108Z,62.10
2018-06-08T12:56:41.125Z,65.70
2018-06-08T12:57:41.113Z,39.00
2018-06-08T12:58:41.146Z,124.30
2018-06-08T12:59:41.149Z,203.70
2018-06-08T13:00:41.198Z,200.10
2018-06-08T13:01:41.118Z,220.40